sensor_id;sensor_type;location;lat;lon;timestamp;temperature;humidity
1461;DHT22;724;49.910;12.530;2023-04-06T00:00:15;-2.40;99.90
1461;DHT22;724;49.910;12.530;2023-04-06T00:02:41;-2.50;99.90
1461;DHT22;724;49.910;12.530;2023-04-06T00:05:08;-2.50;99.90
1461;DHT22;724;49.910;12.530;2023-04-06T00:07:35;-2.50;99.90
1461;DHT22;724;49.910;12.530;2023-04-06T00:10:03;-2.50;99.90
1461;DHT22;724;49.910;12.530;2023-04-06T00:12:30;-2.60;99.90
1461;DHT22;724;49.910;12.530;2023-04-06T00:14:56;-2.60;99.90
1461;DHT22;724;49.910;12.530;2023-04-06T00:17:25;-2.70;99.90
1461;DHT22;724;49.910;12.530;2023-04-06T00:19:51;-2.70;99.90
1461;DHT22;724;49.910;12.530;2023-04-06T00:22:18;-2.70;99.90
1461;DHT22;724;49.910;12.530;2023-04-06T00:24:45;-2.70;99.90
1461;DHT22;724;49.910;12.530;2023-04-06T00:27:11;-2.70;99.90
1461;DHT22;724;49.910;12.530;2023-04-06T00:29:39;-2.70;99.90
1461;DHT22;724;49.910;12.530;2023-04-06T00:32:06;-2.50;99.90
1461;DHT22;724;49.910;12.530;2023-04-06T00:34:35;-2.50;99.90
1461;DHT22;724;49.910;12.530;2023-04-06T00:37:01;-2.60;99.90
1461;DHT22;724;49.910;12.530;2023-04-06T00:39:28;-2.80;99.90
1461;DHT22;724;49.910;12.530;2023-04-06T00:41:55;-2.80;99.90
1461;DHT22;724;49.910;12.530;2023-04-06T00:44:23;-2.90;99.90
1461;DHT22;724;49.910;12.530;2023-04-06T00:46:50;-2.90;99.90
1461;DHT22;724;49.910;12.530;2023-04-06T00:49:17;-2.90;99.90
1461;DHT22;724;49.910;12.530;2023-04-06T00:51:45;-2.90;99.90
1461;DHT22;724;49.910;12.530;2023-04-06T00:54:12;-3.00;99.90
1461;DHT22;724;49.910;12.530;2023-04-06T00:56:41;-3.00;99.90
1461;DHT22;724;49.910;12.530;2023-04-06T00:59:08;-3.00;99.90
1461;DHT22;724;49.910;12.530;2023-04-06T01:01:35;-3.10;99.90
1461;DHT22;724;49.910;12.530;2023-04-06T01:04:02;-3.10;99.90
1461;DHT22;724;49.910;12.530;2023-04-06T01:06:29;-3.20;99.90
1461;DHT22;724;49.910;12.530;2023-04-06T01:08:57;-3.20;99.90
1461;DHT22;724;49.910;12.530;2023-04-06T01:11:24;-3.20;99.90
1461;DHT22;724;49.910;12.530;2023-04-06T01:13:51;-3.20;99.90
1461;DHT22;724;49.910;12.530;2023-04-06T01:16:18;-3.20;99.90
1461;DHT22;724;49.910;12.530;2023-04-06T01:18:45;-3.30;99.90
1461;DHT22;724;49.910;12.530;2023-04-06T01:21:12;-3.30;99.90
1461;DHT22;724;49.910;12.530;2023-04-06T01:23:43;-3.40;99.90
1461;DHT22;724;49.910;12.530;2023-04-06T01:26:10;-3.40;99.90
1461;DHT22;724;49.910;12.530;2023-04-06T01:28:37;-3.40;99.90
1461;DHT22;724;49.910;12.530;2023-04-06T01:31:04;-3.40;99.90
1461;DHT22;724;49.910;12.530;2023-04-06T01:33:31;-3.40;99.90
1461;DHT22;724;49.910;12.530;2023-04-06T01:35:58;-3.40;99.90
1461;DHT22;724;49.910;12.530;2023-04-06T01:38:25;-3.30;99.90
1461;DHT22;724;49.910;12.530;2023-04-06T01:40:53;-3.30;1.00
1461;DHT22;724;49.910;12.530;2023-04-06T01:43:20;-3.40;1.00
1461;DHT22;724;49.910;12.530;2023-04-06T01:45:47;-3.30;1.00
1461;DHT22;724;49.910;12.530;2023-04-06T01:48:14;-3.40;1.00
1461;DHT22;724;49.910;12.530;2023-04-06T01:50:41;-3.40;1.00
1461;DHT22;724;49.910;12.530;2023-04-06T01:53:08;-3.40;1.00
1461;DHT22;724;49.910;12.530;2023-04-06T01:55:35;-3.40;1.00
1461;DHT22;724;49.910;12.530;2023-04-06T01:58:03;-3.40;1.00
1461;DHT22;724;49.910;12.530;2023-04-06T02:00:29;-3.40;1.00
1461;DHT22;724;49.910;12.530;2023-04-06T02:02:56;-3.40;1.00
1461;DHT22;724;49.910;12.530;2023-04-06T02:05:23;-3.40;1.00
1461;DHT22;724;49.910;12.530;2023-04-06T02:07:50;-3.30;1.00
1461;DHT22;724;49.910;12.530;2023-04-06T02:10:17;-3.20;1.00
1461;DHT22;724;49.910;12.530;2023-04-06T02:12:44;-3.20;1.00
1461;DHT22;724;49.910;12.530;2023-04-06T02:15:12;-3.10;1.00
1461;DHT22;724;49.910;12.530;2023-04-06T02:17:40;-3.00;1.00
1461;DHT22;724;49.910;12.530;2023-04-06T02:20:07;-3.00;1.00
1461;DHT22;724;49.910;12.530;2023-04-06T02:22:34;-3.00;1.00
1461;DHT22;724;49.910;12.530;2023-04-06T02:25:01;-2.80;1.00
1461;DHT22;724;49.910;12.530;2023-04-06T02:27:28;-2.80;1.00
1461;DHT22;724;49.910;12.530;2023-04-06T02:29:55;-2.80;1.00
1461;DHT22;724;49.910;12.530;2023-04-06T02:32:23;-2.80;1.00
1461;DHT22;724;49.910;12.530;2023-04-06T02:34:50;-2.80;1.00
1461;DHT22;724;49.910;12.530;2023-04-06T02:37:17;-2.80;1.00
1461;DHT22;724;49.910;12.530;2023-04-06T02:39:44;-2.80;1.00
1461;DHT22;724;49.910;12.530;2023-04-06T02:42:10;-2.80;1.00
1461;DHT22;724;49.910;12.530;2023-04-06T02:44:37;-2.70;1.00
1461;DHT22;724;49.910;12.530;2023-04-06T02:47:04;-2.70;1.00
1461;DHT22;724;49.910;12.530;2023-04-06T02:49:32;-2.70;1.00
1461;DHT22;724;49.910;12.530;2023-04-06T02:51:59;-2.60;1.00
1461;DHT22;724;49.910;12.530;2023-04-06T02:54:26;-2.60;1.00
1461;DHT22;724;49.910;12.530;2023-04-06T02:56:53;-2.60;1.00
1461;DHT22;724;49.910;12.530;2023-04-06T02:59:20;-2.60;1.00
1461;DHT22;724;49.910;12.530;2023-04-06T03:01:46;-2.50;1.00
1461;DHT22;724;49.910;12.530;2023-04-06T03:04:13;-2.60;1.00
1461;DHT22;724;49.910;12.530;2023-04-06T03:06:41;-2.50;1.00
1461;DHT22;724;49.910;12.530;2023-04-06T03:09:08;-2.50;1.00
1461;DHT22;724;49.910;12.530;2023-04-06T03:11:35;-2.50;1.00
1461;DHT22;724;49.910;12.530;2023-04-06T03:14:01;-2.50;1.00
1461;DHT22;724;49.910;12.530;2023-04-06T03:16:28;-2.40;1.00
1461;DHT22;724;49.910;12.530;2023-04-06T03:18:55;-2.40;1.00
1461;DHT22;724;49.910;12.530;2023-04-06T03:21:22;-2.40;1.00
1461;DHT22;724;49.910;12.530;2023-04-06T03:23:50;-2.30;1.00
1461;DHT22;724;49.910;12.530;2023-04-06T03:26:17;-2.30;1.00
1461;DHT22;724;49.910;12.530;2023-04-06T03:28:43;-2.20;1.00
1461;DHT22;724;49.910;12.530;2023-04-06T03:31:10;-2.20;1.00
1461;DHT22;724;49.910;12.530;2023-04-06T03:33:37;-2.20;1.00
1461;DHT22;724;49.910;12.530;2023-04-06T03:36:05;-2.20;1.00
1461;DHT22;724;49.910;12.530;2023-04-06T03:38:33;-2.20;1.00
1461;DHT22;724;49.910;12.530;2023-04-06T03:41:01;-2.20;1.00
1461;DHT22;724;49.910;12.530;2023-04-06T03:43:28;-2.20;1.00
1461;DHT22;724;49.910;12.530;2023-04-06T03:45:56;-2.20;1.00
1461;DHT22;724;49.910;12.530;2023-04-06T03:48:23;-2.20;1.00
1461;DHT22;724;49.910;12.530;2023-04-06T03:50:50;-2.10;1.00
1461;DHT22;724;49.910;12.530;2023-04-06T03:53:17;-2.10;1.00
1461;DHT22;724;49.910;12.530;2023-04-06T03:55:44;-2.20;1.00
1461;DHT22;724;49.910;12.530;2023-04-06T03:58:12;-2.10;1.00
1461;DHT22;724;49.910;12.530;2023-04-06T04:00:38;-2.20;1.00
1461;DHT22;724;49.910;12.530;2023-04-06T04:03:05;-2.20;1.00
1461;DHT22;724;49.910;12.530;2023-04-06T04:05:32;-2.20;1.00
1461;DHT22;724;49.910;12.530;2023-04-06T04:07:58;-2.30;1.00
1461;DHT22;724;49.910;12.530;2023-04-06T04:10:25;-2.40;1.00
1461;DHT22;724;49.910;12.530;2023-04-06T04:12:52;-2.50;1.00
1461;DHT22;724;49.910;12.530;2023-04-06T04:15:20;-2.50;1.00
1461;DHT22;724;49.910;12.530;2023-04-06T04:17:47;-2.50;1.00
1461;DHT22;724;49.910;12.530;2023-04-06T04:20:14;-2.40;1.00
1461;DHT22;724;49.910;12.530;2023-04-06T04:22:41;-2.40;1.00
1461;DHT22;724;49.910;12.530;2023-04-06T04:25:09;-2.50;1.00
1461;DHT22;724;49.910;12.530;2023-04-06T04:27:35;-2.40;1.00
1461;DHT22;724;49.910;12.530;2023-04-06T04:30:03;-2.40;1.00
1461;DHT22;724;49.910;12.530;2023-04-06T04:32:31;-2.40;1.00
1461;DHT22;724;49.910;12.530;2023-04-06T04:34:57;-2.40;1.00
1461;DHT22;724;49.910;12.530;2023-04-06T04:37:24;-2.40;1.00
1461;DHT22;724;49.910;12.530;2023-04-06T04:39:51;-2.40;1.00
1461;DHT22;724;49.910;12.530;2023-04-06T04:42:18;-2.40;1.00
1461;DHT22;724;49.910;12.530;2023-04-06T04:44:44;-2.30;1.00
1461;DHT22;724;49.910;12.530;2023-04-06T04:47:11;-2.30;1.00
1461;DHT22;724;49.910;12.530;2023-04-06T04:49:39;-2.30;1.00
1461;DHT22;724;49.910;12.530;2023-04-06T04:52:06;-2.30;1.00
1461;DHT22;724;49.910;12.530;2023-04-06T04:54:33;-2.30;1.00
1461;DHT22;724;49.910;12.530;2023-04-06T04:56:59;-2.30;1.00
1461;DHT22;724;49.910;12.530;2023-04-06T04:59:26;-2.20;1.00
1461;DHT22;724;49.910;12.530;2023-04-06T05:01:55;-2.00;1.00
1461;DHT22;724;49.910;12.530;2023-04-06T05:04:22;-2.00;1.00
1461;DHT22;724;49.910;12.530;2023-04-06T05:06:50;-2.00;1.00
1461;DHT22;724;49.910;12.530;2023-04-06T05:09:17;-1.90;1.00
1461;DHT22;724;49.910;12.530;2023-04-06T05:11:43;-1.90;1.00
1461;DHT22;724;49.910;12.530;2023-04-06T05:14:10;-1.80;1.00
1461;DHT22;724;49.910;12.530;2023-04-06T05:16:39;-1.80;1.00
1461;DHT22;724;49.910;12.530;2023-04-06T05:19:05;-1.80;1.00
1461;DHT22;724;49.910;12.530;2023-04-06T05:21:32;-1.70;1.00
1461;DHT22;724;49.910;12.530;2023-04-06T05:24:00;-1.50;1.00
1461;DHT22;724;49.910;12.530;2023-04-06T05:26:28;-1.50;1.00
1461;DHT22;724;49.910;12.530;2023-04-06T05:28:54;-1.50;1.00
1461;DHT22;724;49.910;12.530;2023-04-06T05:31:21;-1.40;1.00
1461;DHT22;724;49.910;12.530;2023-04-06T05:33:48;-1.40;1.00
1461;DHT22;724;49.910;12.530;2023-04-06T05:36:15;-1.30;1.00
1461;DHT22;724;49.910;12.530;2023-04-06T05:38:42;-1.20;1.00
1461;DHT22;724;49.910;12.530;2023-04-06T05:41:10;-0.90;1.00
1461;DHT22;724;49.910;12.530;2023-04-06T05:43:37;-1.00;1.00
1461;DHT22;724;49.910;12.530;2023-04-06T05:46:04;-1.00;1.00
1461;DHT22;724;49.910;12.530;2023-04-06T05:48:31;-0.70;1.00
1461;DHT22;724;49.910;12.530;2023-04-06T05:50:57;-0.50;1.00
1461;DHT22;724;49.910;12.530;2023-04-06T05:53:25;-0.10;1.00
1461;DHT22;724;49.910;12.530;2023-04-06T05:55:54;0.30;1.00
1461;DHT22;724;49.910;12.530;2023-04-06T05:58:22;0.60;1.00
1461;DHT22;724;49.910;12.530;2023-04-06T06:00:49;1.00;1.00
1461;DHT22;724;49.910;12.530;2023-04-06T06:03:16;0.80;1.00
1461;DHT22;724;49.910;12.530;2023-04-06T06:05:42;0.60;1.00
1461;DHT22;724;49.910;12.530;2023-04-06T06:08:09;2.40;1.00
1461;DHT22;724;49.910;12.530;2023-04-06T06:10:38;3.90;1.00
1461;DHT22;724;49.910;12.530;2023-04-06T06:13:05;3.70;99.90
1461;DHT22;724;49.910;12.530;2023-04-06T06:15:33;5.40;99.90
1461;DHT22;724;49.910;12.530;2023-04-06T06:18:00;6.10;99.90
1461;DHT22;724;49.910;12.530;2023-04-06T06:20:27;6.80;99.90
1461;DHT22;724;49.910;12.530;2023-04-06T06:22:53;7.40;99.90
1461;DHT22;724;49.910;12.530;2023-04-06T06:25:21;7.20;99.90
1461;DHT22;724;49.910;12.530;2023-04-06T06:27:48;6.80;99.90
1461;DHT22;724;49.910;12.530;2023-04-06T06:30:15;7.90;99.90
1461;DHT22;724;49.910;12.530;2023-04-06T06:32:43;8.80;99.90
1461;DHT22;724;49.910;12.530;2023-04-06T06:35:10;9.40;99.90
1461;DHT22;724;49.910;12.530;2023-04-06T06:37:36;9.70;99.90
1461;DHT22;724;49.910;12.530;2023-04-06T06:40:04;9.80;99.90
1461;DHT22;724;49.910;12.530;2023-04-06T06:42:31;9.20;99.90
1461;DHT22;724;49.910;12.530;2023-04-06T06:44:58;10.40;99.90
1461;DHT22;724;49.910;12.530;2023-04-06T06:47:25;10.80;99.90
1461;DHT22;724;49.910;12.530;2023-04-06T06:49:53;11.10;89.40
1461;DHT22;724;49.910;12.530;2023-04-06T06:52:20;10.80;56.30
1461;DHT22;724;49.910;12.530;2023-04-06T06:54:48;10.60;32.60
1461;DHT22;724;49.910;12.530;2023-04-06T06:57:15;9.10;1.00
1461;DHT22;724;49.910;12.530;2023-04-06T06:59:42;8.60;1.00
1461;DHT22;724;49.910;12.530;2023-04-06T07:02:08;8.50;1.00
1461;DHT22;724;49.910;12.530;2023-04-06T07:04:35;8.40;1.00
1461;DHT22;724;49.910;12.530;2023-04-06T07:07:03;8.50;1.00
1461;DHT22;724;49.910;12.530;2023-04-06T07:09:30;9.60;1.00
1461;DHT22;724;49.910;12.530;2023-04-06T07:11:57;10.60;1.00
1461;DHT22;724;49.910;12.530;2023-04-06T07:14:24;11.20;1.00
1461;DHT22;724;49.910;12.530;2023-04-06T07:16:51;10.60;1.00
1461;DHT22;724;49.910;12.530;2023-04-06T07:19:18;9.80;1.00
1461;DHT22;724;49.910;12.530;2023-04-06T07:21:45;10.70;1.00
1461;DHT22;724;49.910;12.530;2023-04-06T07:24:13;12.30;1.00
1461;DHT22;724;49.910;12.530;2023-04-06T07:26:40;12.20;1.00
1461;DHT22;724;49.910;12.530;2023-04-06T07:29:06;12.00;1.00
1461;DHT22;724;49.910;12.530;2023-04-06T07:31:33;12.60;1.00
1461;DHT22;724;49.910;12.530;2023-04-06T07:34:01;11.60;1.00
1461;DHT22;724;49.910;12.530;2023-04-06T07:36:27;12.80;1.00
1461;DHT22;724;49.910;12.530;2023-04-06T07:38:54;13.40;1.00
1461;DHT22;724;49.910;12.530;2023-04-06T07:41:22;13.60;1.00
1461;DHT22;724;49.910;12.530;2023-04-06T07:43:50;12.90;1.00
1461;DHT22;724;49.910;12.530;2023-04-06T07:46:16;13.50;1.00
1461;DHT22;724;49.910;12.530;2023-04-06T07:48:43;10.40;1.00
1461;DHT22;724;49.910;12.530;2023-04-06T07:51:10;10.50;1.00
1461;DHT22;724;49.910;12.530;2023-04-06T07:53:39;10.50;1.00
1461;DHT22;724;49.910;12.530;2023-04-06T07:56:06;10.60;1.00
1461;DHT22;724;49.910;12.530;2023-04-06T07:58:34;11.30;1.00
1461;DHT22;724;49.910;12.530;2023-04-06T08:01:01;11.20;1.00
1461;DHT22;724;49.910;12.530;2023-04-06T08:03:28;12.00;1.00
1461;DHT22;724;49.910;12.530;2023-04-06T08:05:55;12.10;1.00
1461;DHT22;724;49.910;12.530;2023-04-06T08:08:22;11.80;1.00
1461;DHT22;724;49.910;12.530;2023-04-06T08:10:49;10.40;1.00
1461;DHT22;724;49.910;12.530;2023-04-06T08:13:16;9.90;1.00
1461;DHT22;724;49.910;12.530;2023-04-06T08:15:44;9.30;1.00
1461;DHT22;724;49.910;12.530;2023-04-06T08:18:11;10.00;1.00
1461;DHT22;724;49.910;12.530;2023-04-06T08:20:38;10.10;1.00
1461;DHT22;724;49.910;12.530;2023-04-06T08:23:05;10.40;1.00
1461;DHT22;724;49.910;12.530;2023-04-06T08:25:35;10.00;1.00
1461;DHT22;724;49.910;12.530;2023-04-06T08:28:02;8.90;1.00
1461;DHT22;724;49.910;12.530;2023-04-06T08:30:29;9.60;1.00
1461;DHT22;724;49.910;12.530;2023-04-06T08:32:57;9.70;1.00
1461;DHT22;724;49.910;12.530;2023-04-06T08:35:24;10.30;1.00
1461;DHT22;724;49.910;12.530;2023-04-06T08:37:52;9.20;1.00
1461;DHT22;724;49.910;12.530;2023-04-06T08:40:19;7.80;1.00
1461;DHT22;724;49.910;12.530;2023-04-06T08:42:50;7.70;1.00
1461;DHT22;724;49.910;12.530;2023-04-06T08:45:18;6.50;1.00
1461;DHT22;724;49.910;12.530;2023-04-06T08:47:47;7.00;1.00
1461;DHT22;724;49.910;12.530;2023-04-06T08:50:16;6.80;1.00
1461;DHT22;724;49.910;12.530;2023-04-06T08:52:44;6.60;1.00
1461;DHT22;724;49.910;12.530;2023-04-06T08:55:12;6.30;1.00
1461;DHT22;724;49.910;12.530;2023-04-06T08:57:40;6.50;1.00
1461;DHT22;724;49.910;12.530;2023-04-06T09:00:10;7.80;1.00
1461;DHT22;724;49.910;12.530;2023-04-06T09:02:39;8.90;1.00
1461;DHT22;724;49.910;12.530;2023-04-06T09:05:07;7.50;1.00
1461;DHT22;724;49.910;12.530;2023-04-06T09:07:35;10.20;1.00
1461;DHT22;724;49.910;12.530;2023-04-06T09:10:02;10.60;1.00
1461;DHT22;724;49.910;12.530;2023-04-06T09:12:30;8.50;1.00
1461;DHT22;724;49.910;12.530;2023-04-06T09:14:58;10.90;1.00
1461;DHT22;724;49.910;12.530;2023-04-06T09:17:27;12.60;1.00
1461;DHT22;724;49.910;12.530;2023-04-06T09:19:54;11.00;1.00
1461;DHT22;724;49.910;12.530;2023-04-06T09:22:21;8.90;1.00
1461;DHT22;724;49.910;12.530;2023-04-06T09:24:50;7.30;1.00
1461;DHT22;724;49.910;12.530;2023-04-06T09:27:17;6.50;1.00
1461;DHT22;724;49.910;12.530;2023-04-06T09:29:44;6.60;1.00
1461;DHT22;724;49.910;12.530;2023-04-06T09:32:12;7.60;1.00
1461;DHT22;724;49.910;12.530;2023-04-06T09:34:42;7.50;1.00
1461;DHT22;724;49.910;12.530;2023-04-06T09:37:14;7.60;1.00
1461;DHT22;724;49.910;12.530;2023-04-06T09:39:41;7.50;1.00
1461;DHT22;724;49.910;12.530;2023-04-06T09:42:09;8.90;1.00
1461;DHT22;724;49.910;12.530;2023-04-06T09:44:36;11.10;1.00
1461;DHT22;724;49.910;12.530;2023-04-06T09:47:06;12.20;1.00
1461;DHT22;724;49.910;12.530;2023-04-06T09:49:35;11.70;1.00
1461;DHT22;724;49.910;12.530;2023-04-06T09:52:03;11.30;1.00
1461;DHT22;724;49.910;12.530;2023-04-06T09:54:34;8.90;1.00
1461;DHT22;724;49.910;12.530;2023-04-06T09:57:07;8.30;1.00
1461;DHT22;724;49.910;12.530;2023-04-06T09:59:42;9.60;1.00
1461;DHT22;724;49.910;12.530;2023-04-06T10:02:15;9.60;1.00
1461;DHT22;724;49.910;12.530;2023-04-06T10:04:50;12.10;1.00
1461;DHT22;724;49.910;12.530;2023-04-06T10:07:20;12.70;1.00
1461;DHT22;724;49.910;12.530;2023-04-06T10:09:47;10.90;1.00
1461;DHT22;724;49.910;12.530;2023-04-06T10:12:15;11.60;1.00
1461;DHT22;724;49.910;12.530;2023-04-06T10:14:45;12.80;1.00
1461;DHT22;724;49.910;12.530;2023-04-06T10:17:11;13.40;1.00
1461;DHT22;724;49.910;12.530;2023-04-06T10:19:44;11.30;1.00
1461;DHT22;724;49.910;12.530;2023-04-06T10:22:18;12.40;1.00
1461;DHT22;724;49.910;12.530;2023-04-06T10:24:47;10.60;1.00
1461;DHT22;724;49.910;12.530;2023-04-06T10:27:14;12.10;1.00
1461;DHT22;724;49.910;12.530;2023-04-06T10:29:44;13.30;1.00
1461;DHT22;724;49.910;12.530;2023-04-06T10:32:11;12.00;1.00
1461;DHT22;724;49.910;12.530;2023-04-06T10:34:38;12.10;1.00
1461;DHT22;724;49.910;12.530;2023-04-06T10:37:13;11.10;1.00
1461;DHT22;724;49.910;12.530;2023-04-06T10:39:46;12.00;1.00
1461;DHT22;724;49.910;12.530;2023-04-06T10:42:14;12.80;1.00
1461;DHT22;724;49.910;12.530;2023-04-06T10:44:44;13.80;1.00
1461;DHT22;724;49.910;12.530;2023-04-06T10:47:18;15.30;1.00
1461;DHT22;724;49.910;12.530;2023-04-06T10:49:45;13.20;1.00
1461;DHT22;724;49.910;12.530;2023-04-06T10:52:15;10.00;99.90
1461;DHT22;724;49.910;12.530;2023-04-06T10:54:42;11.70;1.00
1461;DHT22;724;49.910;12.530;2023-04-06T10:57:10;11.90;1.00
1461;DHT22;724;49.910;12.530;2023-04-06T10:59:43;13.30;1.00
1461;DHT22;724;49.910;12.530;2023-04-06T11:02:19;10.10;99.90
1461;DHT22;724;49.910;12.530;2023-04-06T11:04:57;10.70;99.90
1461;DHT22;724;49.910;12.530;2023-04-06T11:07:24;12.30;1.00
1461;DHT22;724;49.910;12.530;2023-04-06T11:09:52;12.90;1.00
1461;DHT22;724;49.910;12.530;2023-04-06T11:12:23;13.40;1.00
1461;DHT22;724;49.910;12.530;2023-04-06T11:14:55;14.00;1.00
1461;DHT22;724;49.910;12.530;2023-04-06T11:17:28;14.00;1.00
1461;DHT22;724;49.910;12.530;2023-04-06T11:19:55;12.90;1.00
1461;DHT22;724;49.910;12.530;2023-04-06T11:22:22;10.80;99.90
1461;DHT22;724;49.910;12.530;2023-04-06T11:24:49;12.60;1.00
1461;DHT22;724;49.910;12.530;2023-04-06T11:27:17;12.00;1.00
1461;DHT22;724;49.910;12.530;2023-04-06T11:29:44;12.20;99.90
1461;DHT22;724;49.910;12.530;2023-04-06T11:32:20;12.60;1.00
1461;DHT22;724;49.910;12.530;2023-04-06T11:34:48;13.10;1.00
1461;DHT22;724;49.910;12.530;2023-04-06T11:37:15;12.90;1.00
1461;DHT22;724;49.910;12.530;2023-04-06T11:39:46;10.70;99.90
1461;DHT22;724;49.910;12.530;2023-04-06T11:42:21;10.80;99.90
1461;DHT22;724;49.910;12.530;2023-04-06T11:44:50;11.50;1.00
1461;DHT22;724;49.910;12.530;2023-04-06T11:47:19;11.30;1.00
1461;DHT22;724;49.910;12.530;2023-04-06T11:49:47;11.90;1.00
1461;DHT22;724;49.910;12.530;2023-04-06T11:52:16;11.80;1.00
1461;DHT22;724;49.910;12.530;2023-04-06T11:54:43;12.10;1.00
1461;DHT22;724;49.910;12.530;2023-04-06T11:57:10;11.40;99.90
1461;DHT22;724;49.910;12.530;2023-04-06T11:59:37;9.30;99.90
1461;DHT22;724;49.910;12.530;2023-04-06T12:02:05;8.60;99.90
1461;DHT22;724;49.910;12.530;2023-04-06T12:04:33;10.50;1.00
1461;DHT22;724;49.910;12.530;2023-04-06T12:07:00;10.80;1.00
1461;DHT22;724;49.910;12.530;2023-04-06T12:09:27;11.30;1.00
1461;DHT22;724;49.910;12.530;2023-04-06T12:11:54;11.70;1.00
1461;DHT22;724;49.910;12.530;2023-04-06T12:14:21;9.60;99.90
1461;DHT22;724;49.910;12.530;2023-04-06T12:16:48;10.10;99.90
1461;DHT22;724;49.910;12.530;2023-04-06T12:19:15;10.30;99.90
1461;DHT22;724;49.910;12.530;2023-04-06T12:21:43;10.50;99.90
1461;DHT22;724;49.910;12.530;2023-04-06T12:24:10;10.30;99.90
1461;DHT22;724;49.910;12.530;2023-04-06T12:26:37;10.70;99.90
1461;DHT22;724;49.910;12.530;2023-04-06T12:29:04;10.10;99.90
1461;DHT22;724;49.910;12.530;2023-04-06T12:31:34;9.90;99.90
1461;DHT22;724;49.910;12.530;2023-04-06T12:34:03;8.40;99.90
1461;DHT22;724;49.910;12.530;2023-04-06T12:36:29;8.40;99.90
1461;DHT22;724;49.910;12.530;2023-04-06T12:38:59;9.20;99.90
1461;DHT22;724;49.910;12.530;2023-04-06T12:41:27;9.20;99.90
1461;DHT22;724;49.910;12.530;2023-04-06T12:43:55;8.40;99.90
1461;DHT22;724;49.910;12.530;2023-04-06T12:46:22;9.20;99.90
1461;DHT22;724;49.910;12.530;2023-04-06T12:48:49;10.30;99.90
1461;DHT22;724;49.910;12.530;2023-04-06T12:51:18;9.00;99.90
1461;DHT22;724;49.910;12.530;2023-04-06T12:53:46;8.40;99.90
1461;DHT22;724;49.910;12.530;2023-04-06T12:56:15;8.50;99.90
1461;DHT22;724;49.910;12.530;2023-04-06T12:58:42;9.10;99.90
1461;DHT22;724;49.910;12.530;2023-04-06T13:01:09;9.20;99.90
1461;DHT22;724;49.910;12.530;2023-04-06T13:03:37;10.00;99.90
1461;DHT22;724;49.910;12.530;2023-04-06T13:06:03;10.10;99.90
1461;DHT22;724;49.910;12.530;2023-04-06T13:08:30;10.40;99.90
1461;DHT22;724;49.910;12.530;2023-04-06T13:10:57;10.60;99.90
1461;DHT22;724;49.910;12.530;2023-04-06T13:13:27;10.20;99.90
1461;DHT22;724;49.910;12.530;2023-04-06T13:16:00;8.10;99.90
1461;DHT22;724;49.910;12.530;2023-04-06T13:18:27;9.40;99.90
1461;DHT22;724;49.910;12.530;2023-04-06T13:20:55;9.00;99.90
1461;DHT22;724;49.910;12.530;2023-04-06T13:23:22;8.20;99.90
1461;DHT22;724;49.910;12.530;2023-04-06T13:25:57;7.60;99.90
1461;DHT22;724;49.910;12.530;2023-04-06T13:28:26;8.30;99.90
1461;DHT22;724;49.910;12.530;2023-04-06T13:30:53;9.20;99.90
1461;DHT22;724;49.910;12.530;2023-04-06T13:33:20;8.60;99.90
1461;DHT22;724;49.910;12.530;2023-04-06T13:35:47;8.60;99.90
1461;DHT22;724;49.910;12.530;2023-04-06T13:38:15;8.40;99.90
1461;DHT22;724;49.910;12.530;2023-04-06T13:40:43;8.60;99.90
1461;DHT22;724;49.910;12.530;2023-04-06T13:43:10;8.80;99.90
1461;DHT22;724;49.910;12.530;2023-04-06T13:45:38;9.00;99.90
1461;DHT22;724;49.910;12.530;2023-04-06T13:48:05;8.90;99.90
1461;DHT22;724;49.910;12.530;2023-04-06T13:50:33;8.10;99.90
1461;DHT22;724;49.910;12.530;2023-04-06T13:53:00;8.30;99.90
1461;DHT22;724;49.910;12.530;2023-04-06T13:55:27;8.30;99.90
1461;DHT22;724;49.910;12.530;2023-04-06T13:57:55;8.70;99.90
1461;DHT22;724;49.910;12.530;2023-04-06T14:00:22;8.50;99.90
1461;DHT22;724;49.910;12.530;2023-04-06T14:02:50;8.60;99.90
1461;DHT22;724;49.910;12.530;2023-04-06T14:05:17;8.70;99.90
1461;DHT22;724;49.910;12.530;2023-04-06T14:07:44;8.70;99.90
1461;DHT22;724;49.910;12.530;2023-04-06T14:10:11;9.00;1.00
1461;DHT22;724;49.910;12.530;2023-04-06T14:12:40;8.70;99.90
1461;DHT22;724;49.910;12.530;2023-04-06T14:15:08;8.80;1.00
1461;DHT22;724;49.910;12.530;2023-04-06T14:17:35;9.20;1.00
1461;DHT22;724;49.910;12.530;2023-04-06T14:20:04;9.00;99.90
1461;DHT22;724;49.910;12.530;2023-04-06T14:22:32;9.30;1.00
1461;DHT22;724;49.910;12.530;2023-04-06T14:24:58;8.80;99.90
1461;DHT22;724;49.910;12.530;2023-04-06T14:27:25;8.60;99.90
1461;DHT22;724;49.910;12.530;2023-04-06T14:29:54;8.80;99.90
1461;DHT22;724;49.910;12.530;2023-04-06T14:32:21;9.60;1.00
1461;DHT22;724;49.910;12.530;2023-04-06T14:34:48;9.30;1.00
1461;DHT22;724;49.910;12.530;2023-04-06T14:37:16;8.90;99.90
1461;DHT22;724;49.910;12.530;2023-04-06T14:39:44;9.30;1.00
1461;DHT22;724;49.910;12.530;2023-04-06T14:42:11;9.20;1.00
1461;DHT22;724;49.910;12.530;2023-04-06T14:44:38;9.00;1.00
1461;DHT22;724;49.910;12.530;2023-04-06T14:47:08;9.10;1.00
1461;DHT22;724;49.910;12.530;2023-04-06T14:49:35;9.30;1.00
1461;DHT22;724;49.910;12.530;2023-04-06T14:52:02;9.20;99.90
1461;DHT22;724;49.910;12.530;2023-04-06T14:54:30;9.00;99.90
1461;DHT22;724;49.910;12.530;2023-04-06T14:56:57;9.20;1.00
1461;DHT22;724;49.910;12.530;2023-04-06T14:59:24;9.40;1.00
1461;DHT22;724;49.910;12.530;2023-04-06T15:01:51;8.80;99.90
1461;DHT22;724;49.910;12.530;2023-04-06T15:04:17;8.80;99.90
1461;DHT22;724;49.910;12.530;2023-04-06T15:06:44;8.90;99.90
1461;DHT22;724;49.910;12.530;2023-04-06T15:09:11;9.30;1.00
1461;DHT22;724;49.910;12.530;2023-04-06T15:11:40;9.50;1.00
1461;DHT22;724;49.910;12.530;2023-04-06T15:14:06;9.60;1.00
1461;DHT22;724;49.910;12.530;2023-04-06T15:16:33;9.50;1.00
1461;DHT22;724;49.910;12.530;2023-04-06T15:19:00;9.50;1.00
1461;DHT22;724;49.910;12.530;2023-04-06T15:21:27;9.70;1.00
1461;DHT22;724;49.910;12.530;2023-04-06T15:23:55;9.10;99.90
1461;DHT22;724;49.910;12.530;2023-04-06T15:26:22;9.20;99.90
1461;DHT22;724;49.910;12.530;2023-04-06T15:28:50;9.10;99.90
1461;DHT22;724;49.910;12.530;2023-04-06T15:31:18;9.40;1.00
1461;DHT22;724;49.910;12.530;2023-04-06T15:33:46;9.20;99.90
1461;DHT22;724;49.910;12.530;2023-04-06T15:36:22;9.30;99.90
1461;DHT22;724;49.910;12.530;2023-04-06T15:38:50;9.50;99.90
1461;DHT22;724;49.910;12.530;2023-04-06T15:43:54;10.20;1.00
1461;DHT22;724;49.910;12.530;2023-04-06T15:46:21;10.30;1.00
1461;DHT22;724;49.910;12.530;2023-04-06T15:48:48;10.20;1.00
1461;DHT22;724;49.910;12.530;2023-04-06T15:51:15;9.50;99.90
1461;DHT22;724;49.910;12.530;2023-04-06T15:53:42;9.00;99.90
1461;DHT22;724;49.910;12.530;2023-04-06T15:56:09;8.90;99.90
1461;DHT22;724;49.910;12.530;2023-04-06T15:58:36;9.00;99.90
1461;DHT22;724;49.910;12.530;2023-04-06T16:01:11;8.90;99.90
1461;DHT22;724;49.910;12.530;2023-04-06T16:03:39;9.00;99.90
1461;DHT22;724;49.910;12.530;2023-04-06T16:06:06;8.80;99.90
1461;DHT22;724;49.910;12.530;2023-04-06T16:08:33;8.80;99.90
1461;DHT22;724;49.910;12.530;2023-04-06T16:11:00;9.40;99.90
1461;DHT22;724;49.910;12.530;2023-04-06T16:13:26;9.40;99.90
1461;DHT22;724;49.910;12.530;2023-04-06T16:15:53;8.70;99.90
1461;DHT22;724;49.910;12.530;2023-04-06T16:18:22;9.20;1.00
1461;DHT22;724;49.910;12.530;2023-04-06T16:20:48;8.70;99.90